createdAt,value
2022-10-08T00:00:02.019Z,10.46
2022-10-08T00:01:02.012Z,10.44
2022-10-08T00:02:02.079Z,10.42
2022-10-08T00:03:02.000Z,10.42
2022-10-08T00:04:02.025Z,10.43
2022-10-08T00:05:01.948Z,10.44
2022-10-08T00:06:01.985Z,10.38
2022-10-08T00:07:01.929Z,10.42
2022-10-08T00:08:01.914Z,10.36
2022-10-08T00:09:01.915Z,10.38
2022-10-08T00:10:01.897Z,10.38
2022-10-08T00:11:01.897Z,10.36
2022-10-08T00:12:01.885Z,10.36
2022-10-08T00:13:01.854Z,10.36
2022-10-08T00:14:01.853Z,10.32
2022-10-08T00:15:01.838Z,10.31
2022-10-08T00:16:01.858Z,10.32
2022-10-08T00:17:01.815Z,10.34
2022-10-08T00:18:01.819Z,10.32
2022-10-08T00:19:01.789Z,10.29
2022-10-08T00:20:01.794Z,10.28
2022-10-08T00:21:01.786Z,10.28
2022-10-08T00:22:01.774Z,10.26
2022-10-08T00:23:01.747Z,10.24
2022-10-08T00:24:01.732Z,10.25
2022-10-08T00:25:01.730Z,10.22
2022-10-08T00:26:01.732Z,10.18
2022-10-08T00:27:01.702Z,10.20
2022-10-08T00:28:01.779Z,10.22
2022-10-08T00:29:01.677Z,10.24
2022-10-08T00:30:01.668Z,10.25
2022-10-08T00:31:01.683Z,10.26
2022-10-08T00:32:01.776Z,10.24
2022-10-08T00:33:01.617Z,10.25
2022-10-08T00:34:01.656Z,10.20
2022-10-08T00:35:01.596Z,10.18
2022-10-08T00:36:01.598Z,10.20
2022-10-08T00:37:01.585Z,10.18
2022-10-08T00:38:01.569Z,10.20
2022-10-08T00:39:01.591Z,10.17
2022-10-08T00:40:01.570Z,10.18
2022-10-08T00:41:01.545Z,10.18
2022-10-08T00:42:01.528Z,10.20
2022-10-08T00:43:01.547Z,10.22
2022-10-08T00:44:01.537Z,10.20
2022-10-08T00:45:01.501Z,10.17
2022-10-08T00:46:01.594Z,10.16
2022-10-08T00:47:01.481Z,10.13
2022-10-08T00:48:01.471Z,10.11
2022-10-08T00:49:01.455Z,10.14
2022-10-08T00:50:01.467Z,10.16
2022-10-08T00:51:01.443Z,10.14
2022-10-08T00:52:01.415Z,10.13
2022-10-08T00:53:01.417Z,10.14
2022-10-08T00:54:01.398Z,10.13
2022-10-08T00:55:01.407Z,10.14
2022-10-08T00:56:01.369Z,10.16
2022-10-08T00:57:01.370Z,10.17
2022-10-08T00:58:01.347Z,10.17
2022-10-08T00:59:01.345Z,10.16
2022-10-08T01:00:01.354Z,10.17
2022-10-08T01:01:01.350Z,10.13
2022-10-08T01:02:01.321Z,10.14
2022-10-08T01:03:01.296Z,10.14
2022-10-08T01:04:01.276Z,10.14
2022-10-08T01:05:01.271Z,10.11
2022-10-08T01:06:01.282Z,10.13
2022-10-08T01:07:01.237Z,10.14
2022-10-08T01:08:01.242Z,10.16
2022-10-08T01:09:01.236Z,10.16
2022-10-08T01:10:01.213Z,10.18
2022-10-08T01:11:01.217Z,10.18
2022-10-08T01:12:01.193Z,10.14
2022-10-08T01:13:01.185Z,10.18
2022-10-08T01:14:01.174Z,10.18
2022-10-08T01:15:01.143Z,10.20
2022-10-08T01:16:01.216Z,10.18
2022-10-08T01:17:01.151Z,10.18
2022-10-08T01:18:01.121Z,10.24
2022-10-08T01:19:01.113Z,10.24
2022-10-08T01:20:01.107Z,10.25
2022-10-08T01:21:01.123Z,10.28
2022-10-08T01:22:01.081Z,10.32
2022-10-08T01:23:01.075Z,10.35
2022-10-08T01:24:01.056Z,10.38
2022-10-08T01:25:01.035Z,10.39
2022-10-08T01:26:01.034Z,10.43
2022-10-08T01:27:01.035Z,10.39
2022-10-08T01:28:01.100Z,10.36
2022-10-08T01:29:01.012Z,10.38
2022-10-08T01:30:00.986Z,10.43
2022-10-08T01:31:00.977Z,10.44
2022-10-08T01:32:01.004Z,10.46
2022-10-08T01:33:00.936Z,10.46
2022-10-08T01:34:00.936Z,10.47
2022-10-08T01:35:00.942Z,10.47
2022-10-08T01:36:00.922Z,10.49
2022-10-08T01:37:00.924Z,10.47
2022-10-08T01:38:00.908Z,10.49
2022-10-08T01:39:00.881Z,10.52
2022-10-08T01:40:00.874Z,10.57
2022-10-08T01:41:00.869Z,10.62
2022-10-08T01:42:00.850Z,10.58
2022-10-08T01:43:00.864Z,10.65
2022-10-08T01:44:00.843Z,10.66
2022-10-08T01:45:00.813Z,10.68
2022-10-08T01:46:00.904Z,10.68
2022-10-08T01:47:00.816Z,10.66
2022-10-08T01:48:00.793Z,10.66
2022-10-08T01:49:00.769Z,10.63
2022-10-08T01:50:00.777Z,10.62
2022-10-08T01:51:00.743Z,10.63
2022-10-08T01:52:00.728Z,10.63
2022-10-08T01:53:00.773Z,10.65
2022-10-08T01:54:00.699Z,10.62
2022-10-08T01:55:00.702Z,10.62
2022-10-08T01:56:00.711Z,10.62
2022-10-08T01:57:00.687Z,10.58
2022-10-08T01:58:00.662Z,10.58
2022-10-08T01:59:00.699Z,10.58
2022-10-08T02:00:00.638Z,10.62
2022-10-08T02:01:00.681Z,10.65
2022-10-08T02:02:00.663Z,10.68
2022-10-08T02:03:00.607Z,10.72
2022-10-08T02:04:00.629Z,10.75
2022-10-08T02:05:00.587Z,10.76
2022-10-08T02:06:00.575Z,10.81
2022-10-08T02:07:00.574Z,10.84
2022-10-08T02:08:00.548Z,10.86
2022-10-08T02:09:00.568Z,10.88
2022-10-08T02:10:00.532Z,10.91
2022-10-08T02:11:00.521Z,10.93
2022-10-08T02:12:00.516Z,10.93
2022-10-08T02:13:00.499Z,10.94
2022-10-08T02:14:00.478Z,10.98
2022-10-08T02:15:00.527Z,11.01
2022-10-08T02:16:00.457Z,11.02
2022-10-08T02:17:00.454Z,11.03
2022-10-08T02:18:00.440Z,11.05
2022-10-08T02:19:00.451Z,11.06
2022-10-08T02:20:00.437Z,11.08
2022-10-08T02:21:00.407Z,11.09
2022-10-08T02:22:00.395Z,11.11
2022-10-08T02:23:00.379Z,11.13
2022-10-08T02:24:00.363Z,11.16
2022-10-08T02:25:00.386Z,11.19
2022-10-08T02:26:00.376Z,11.19
2022-10-08T02:27:00.341Z,11.21
2022-10-08T02:28:00.376Z,11.21
2022-10-08T02:29:00.308Z,11.21
2022-10-08T02:30:00.311Z,11.23
2022-10-08T02:31:00.297Z,11.21
2022-10-08T02:32:00.396Z,11.21
2022-10-08T02:33:00.261Z,11.21
2022-10-08T02:34:00.268Z,11.23
2022-10-08T02:35:00.253Z,11.21
2022-10-08T02:36:00.289Z,11.26
2022-10-08T02:37:00.230Z,11.28
2022-10-08T02:38:00.203Z,11.28
2022-10-08T02:39:00.196Z,11.31
2022-10-08T02:40:00.201Z,11.35
2022-10-08T02:41:00.204Z,11.35
2022-10-08T02:42:00.168Z,11.38
2022-10-08T02:43:00.151Z,11.39
2022-10-08T02:44:00.147Z,11.38
2022-10-08T02:45:00.125Z,11.41
2022-10-08T02:46:00.240Z,11.42
2022-10-08T02:47:00.126Z,11.42
2022-10-08T02:48:00.095Z,11.44
2022-10-08T02:49:00.083Z,11.45
2022-10-08T02:50:00.162Z,11.48
2022-10-08T02:51:00.085Z,11.48
2022-10-08T02:52:00.080Z,11.51
2022-10-08T02:53:00.090Z,11.53
2022-10-08T02:54:00.024Z,11.54
2022-10-08T02:55:00.011Z,11.56
2022-10-08T02:56:00.027Z,11.59
2022-10-08T02:57:00.015Z,11.59
2022-10-08T02:57:59.984Z,11.59
2022-10-08T02:58:59.967Z,11.63
2022-10-08T02:59:59.972Z,11.66
2022-10-08T03:01:00.043Z,11.69
2022-10-08T03:02:00.007Z,11.69
2022-10-08T03:02:59.929Z,11.69
2022-10-08T03:03:59.928Z,11.70
2022-10-08T03:04:59.900Z,11.72
2022-10-08T03:05:59.906Z,11.74
2022-10-08T03:06:59.875Z,11.77
2022-10-08T03:07:59.870Z,11.77
2022-10-08T03:08:59.866Z,11.78
2022-10-08T03:09:59.854Z,11.79
2022-10-08T03:10:59.853Z,11.81
2022-10-08T03:11:59.837Z,11.82
2022-10-08T03:12:59.823Z,11.85
2022-10-08T03:13:59.825Z,11.84
2022-10-08T03:14:59.809Z,11.88
2022-10-08T03:15:59.805Z,11.85
2022-10-08T03:16:59.813Z,11.88
2022-10-08T03:17:59.761Z,11.93
2022-10-08T03:18:59.770Z,11.93
2022-10-08T03:19:59.736Z,11.93
2022-10-08T03:20:59.746Z,11.94
2022-10-08T03:21:59.705Z,11.94
2022-10-08T03:22:59.695Z,11.93
2022-10-08T03:23:59.686Z,11.93
2022-10-08T03:24:59.675Z,11.93
2022-10-08T03:25:59.692Z,11.88
2022-10-08T03:26:59.662Z,11.87
2022-10-08T03:27:59.668Z,11.85
2022-10-08T03:28:59.626Z,11.85
2022-10-08T03:29:59.634Z,11.84
2022-10-08T03:30:59.710Z,11.84
2022-10-08T03:31:59.598Z,11.81
2022-10-08T03:32:59.569Z,11.84
2022-10-08T03:33:59.579Z,11.82
2022-10-08T03:34:59.560Z,11.82
2022-10-08T03:35:59.577Z,11.82
2022-10-08T03:36:59.545Z,11.85
2022-10-08T03:37:59.541Z,11.88
2022-10-08T03:38:59.522Z,11.88
2022-10-08T03:39:59.502Z,11.85
2022-10-08T03:40:59.511Z,11.85
2022-10-08T03:41:59.479Z,11.87
2022-10-08T03:42:59.472Z,11.87
2022-10-08T03:43:59.456Z,11.87
2022-10-08T03:44:59.455Z,11.88
2022-10-08T03:45:59.500Z,11.85
2022-10-08T03:46:59.423Z,11.88
2022-10-08T03:47:59.412Z,11.90
2022-10-08T03:48:59.404Z,11.93
2022-10-08T03:49:59.395Z,11.96
2022-10-08T03:50:59.408Z,11.94
2022-10-08T03:51:59.365Z,11.88
2022-10-08T03:52:59.363Z,11.87
2022-10-08T03:53:59.349Z,11.87
2022-10-08T03:54:59.325Z,11.85
2022-10-08T03:55:59.343Z,11.84
2022-10-08T03:56:59.312Z,11.85
2022-10-08T03:57:59.302Z,11.85
2022-10-08T03:58:59.296Z,11.84
2022-10-08T03:59:59.281Z,11.81
2022-10-08T04:00:59.269Z,11.79
2022-10-08T04:01:59.279Z,11.81
2022-10-08T04:02:59.286Z,11.81
2022-10-08T04:03:59.229Z,11.81
2022-10-08T04:04:59.227Z,11.81
2022-10-08T04:05:59.210Z,11.81
2022-10-08T04:06:59.222Z,11.81
2022-10-08T04:07:59.181Z,11.78
2022-10-08T04:08:59.201Z,11.78
2022-10-08T04:09:59.178Z,11.77
2022-10-08T04:10:59.152Z,11.77
2022-10-08T04:11:59.143Z,11.74
2022-10-08T04:12:59.175Z,11.75
2022-10-08T04:13:59.146Z,11.74
2022-10-08T04:14:59.107Z,11.74
2022-10-08T04:15:59.119Z,11.72
2022-10-08T04:16:59.091Z,11.74
2022-10-08T04:17:59.108Z,11.72
2022-10-08T04:18:59.085Z,11.74
2022-10-08T04:19:59.061Z,11.75
2022-10-08T04:20:59.038Z,11.74
2022-10-08T04:21:59.044Z,11.70
2022-10-08T04:22:59.028Z,11.70
2022-10-08T04:23:59.041Z,11.72
2022-10-08T04:24:59.011Z,11.70
2022-10-08T04:25:58.980Z,11.69
2022-10-08T04:26:58.969Z,11.67
2022-10-08T04:27:58.961Z,11.67
2022-10-08T04:28:58.985Z,11.63
2022-10-08T04:29:58.938Z,11.62
2022-10-08T04:30:58.968Z,11.62
2022-10-08T04:31:58.942Z,11.59
2022-10-08T04:32:58.932Z,11.59
2022-10-08T04:33:58.887Z,11.56
2022-10-08T04:34:58.933Z,11.54
2022-10-08T04:36:00.297Z,11.53
2022-10-08T04:36:58.863Z,11.51
2022-10-08T04:37:58.844Z,11.51
2022-10-08T04:38:58.837Z,11.49
2022-10-08T04:39:58.827Z,11.49
2022-10-08T04:40:58.863Z,11.51
2022-10-08T04:41:58.813Z,11.51
2022-10-08T04:42:58.790Z,11.51
2022-10-08T04:43:58.794Z,11.51
2022-10-08T04:44:58.807Z,11.53
2022-10-08T04:45:58.830Z,11.49
2022-10-08T04:46:58.752Z,11.48
2022-10-08T04:47:58.744Z,11.46
2022-10-08T04:48:58.731Z,11.46
2022-10-08T04:49:58.728Z,11.46
2022-10-08T04:50:58.723Z,11.45
2022-10-08T04:51:59.245Z,11.45
2022-10-08T04:52:58.673Z,11.48
2022-10-08T04:53:58.704Z,11.46
2022-10-08T04:54:58.663Z,11.45
2022-10-08T04:55:58.644Z,11.46
2022-10-08T04:56:58.640Z,11.44
2022-10-08T04:57:58.673Z,11.44
2022-10-08T04:58:58.619Z,11.45
2022-10-08T05:00:16.936Z,11.45
2022-10-08T05:00:58.608Z,11.45
2022-10-08T05:01:58.643Z,11.45
2022-10-08T05:02:58.626Z,11.44
2022-10-08T05:03:58.597Z,11.46
2022-10-08T05:04:58.550Z,11.45
2022-10-08T05:05:58.530Z,11.45
2022-10-08T05:06:58.525Z,11.45
2022-10-08T05:07:58.537Z,11.49
2022-10-08T05:08:58.495Z,11.48
2022-10-08T05:09:58.514Z,11.51
2022-10-08T05:10:58.473Z,11.49
2022-10-08T05:11:58.500Z,11.53
2022-10-08T05:12:58.460Z,11.53
2022-10-08T05:13:58.443Z,11.53
2022-10-08T05:14:58.422Z,11.49
2022-10-08T05:15:58.514Z,11.51
2022-10-08T05:16:58.414Z,11.54
2022-10-08T05:17:58.400Z,11.56
2022-10-08T05:18:58.385Z,11.54
2022-10-08T05:19:58.391Z,11.53
2022-10-08T05:20:58.362Z,11.54
2022-10-08T05:21:58.371Z,11.56
2022-10-08T05:22:58.337Z,11.57
2022-10-08T05:23:58.365Z,11.59
2022-10-08T05:24:58.312Z,11.56
2022-10-08T05:25:58.314Z,11.57
2022-10-08T05:26:59.292Z,11.57
2022-10-08T05:27:58.300Z,11.59
2022-10-08T05:28:58.271Z,11.57
2022-10-08T05:29:58.300Z,11.59
2022-10-08T05:30:58.274Z,11.57
2022-10-08T05:31:58.265Z,11.59
2022-10-08T05:32:58.237Z,11.62
2022-10-08T05:33:58.246Z,11.60
2022-10-08T05:34:58.225Z,11.62
2022-10-08T05:35:58.224Z,11.63
2022-10-08T05:36:58.194Z,11.64
2022-10-08T05:37:58.171Z,11.63
2022-10-08T05:38:58.164Z,11.63
2022-10-08T05:39:58.186Z,11.63
2022-10-08T05:40:58.141Z,11.63
2022-10-08T05:41:58.118Z,11.64
2022-10-08T05:42:58.117Z,11.63
2022-10-08T05:43:58.124Z,11.66
2022-10-08T05:44:58.090Z,11.64
2022-10-08T05:45:58.095Z,11.66
2022-10-08T05:46:58.147Z,11.67
2022-10-08T05:47:58.063Z,11.64
2022-10-08T05:48:58.065Z,11.66
2022-10-08T05:49:58.039Z,11.66
2022-10-08T05:50:58.027Z,11.67
2022-10-08T05:51:58.065Z,11.67
2022-10-08T05:52:58.030Z,11.67
2022-10-08T05:53:57.995Z,11.72
2022-10-08T05:54:57.978Z,11.72
2022-10-08T05:55:57.958Z,11.70
2022-10-08T05:56:57.973Z,11.72
2022-10-08T05:57:58.180Z,11.70
2022-10-08T05:58:57.931Z,11.70
2022-10-08T05:59:57.929Z,11.70
2022-10-08T06:00:57.916Z,11.70
2022-10-08T06:01:57.911Z,11.74
2022-10-08T06:02:57.930Z,11.72
2022-10-08T06:03:57.904Z,11.72
2022-10-08T06:04:57.915Z,11.74
2022-10-08T06:05:57.861Z,11.74
2022-10-08T06:06:57.838Z,11.77
2022-10-08T06:07:57.837Z,11.74
2022-10-08T06:08:57.841Z,11.75
2022-10-08T06:09:57.814Z,11.77
2022-10-08T06:10:57.813Z,11.78
2022-10-08T06:11:57.789Z,11.77
2022-10-08T06:12:57.778Z,11.79
2022-10-08T06:13:57.796Z,11.78
2022-10-08T06:14:57.796Z,11.81
2022-10-08T06:15:57.799Z,11.79
2022-10-08T06:16:57.726Z,11.82
2022-10-08T06:17:57.739Z,11.81
2022-10-08T06:18:57.707Z,11.81
2022-10-08T06:19:57.720Z,11.81
2022-10-08T06:20:57.710Z,11.82
2022-10-08T06:21:57.688Z,11.81
2022-10-08T06:22:57.661Z,11.82
2022-10-08T06:23:57.652Z,11.84
2022-10-08T06:24:57.655Z,11.85
2022-10-08T06:25:57.637Z,11.88
2022-10-08T06:26:57.628Z,11.90
2022-10-08T06:27:57.624Z,11.94
2022-10-08T06:28:57.617Z,11.93
2022-10-08T06:29:57.591Z,11.96
2022-10-08T06:30:57.596Z,11.94
2022-10-08T06:31:57.601Z,11.97
2022-10-08T06:32:57.561Z,11.96
2022-10-08T06:33:57.547Z,11.96
2022-10-08T06:34:57.527Z,11.96
2022-10-08T06:35:57.537Z,11.96
2022-10-08T06:36:57.530Z,11.98
2022-10-08T06:37:57.490Z,12.01
2022-10-08T06:38:57.488Z,12.04
2022-10-08T06:39:57.473Z,12.05
2022-10-08T06:40:57.460Z,12.03
2022-10-08T06:41:57.486Z,12.04
2022-10-08T06:42:57.439Z,12.05
2022-10-08T06:43:57.444Z,12.05
2022-10-08T06:45:01.969Z,12.05
2022-10-08T06:45:57.414Z,12.07
2022-10-08T06:46:57.482Z,12.07
2022-10-08T06:47:57.395Z,12.08
2022-10-08T06:48:57.363Z,12.12
2022-10-08T06:49:57.369Z,12.15
2022-10-08T06:50:57.345Z,12.18
2022-10-08T06:51:57.332Z,12.18
2022-10-08T06:52:57.334Z,12.18
2022-10-08T06:54:00.335Z,12.21
2022-10-08T06:54:57.310Z,12.23
2022-10-08T06:55:57.297Z,12.29
2022-10-08T06:56:57.289Z,12.31
2022-10-08T06:57:57.264Z,12.31
2022-10-08T06:58:57.283Z,12.31
2022-10-08T06:59:57.310Z,12.33
2022-10-08T07:00:57.271Z,12.33
2022-10-08T07:01:57.267Z,12.36
2022-10-08T07:02:57.214Z,12.34
2022-10-08T07:03:57.228Z,12.34
2022-10-08T07:04:57.199Z,12.37
2022-10-08T07:05:57.171Z,12.40
2022-10-08T07:06:57.171Z,12.41
2022-10-08T07:07:57.151Z,12.44
2022-10-08T07:08:57.184Z,12.43
2022-10-08T07:09:57.147Z,12.44
2022-10-08T07:10:57.120Z,12.46
2022-10-08T07:11:57.108Z,12.46
2022-10-08T07:12:57.098Z,12.51
2022-10-08T07:13:57.092Z,12.56
2022-10-08T07:14:57.105Z,12.59
2022-10-08T07:15:57.119Z,12.58
2022-10-08T07:16:57.068Z,12.54
2022-10-08T07:17:57.049Z,12.56
2022-10-08T07:18:57.032Z,12.58
2022-10-08T07:19:57.019Z,12.56
2022-10-08T07:20:57.040Z,12.59
2022-10-08T07:22:01.181Z,12.63
2022-10-08T07:22:56.999Z,12.63
2022-10-08T07:23:56.963Z,12.63
2022-10-08T07:24:56.986Z,12.67
2022-10-08T07:25:56.967Z,12.66
2022-10-08T07:26:56.953Z,12.63
2022-10-08T07:27:56.928Z,12.67
2022-10-08T07:28:56.916Z,12.70
2022-10-08T07:29:56.908Z,12.69
2022-10-08T07:30:56.920Z,12.70
2022-10-08T07:31:56.962Z,12.70
2022-10-08T07:32:56.874Z,12.71
2022-10-08T07:33:56.864Z,12.71
2022-10-08T07:35:00.005Z,12.74
2022-10-08T07:35:56.873Z,12.77
2022-10-08T07:36:56.837Z,12.79
2022-10-08T07:37:56.818Z,12.81
2022-10-08T07:38:56.806Z,12.84
2022-10-08T07:39:56.805Z,12.88
2022-10-08T07:40:56.782Z,12.85
2022-10-08T07:41:56.806Z,12.88
2022-10-08T07:42:56.755Z,12.91
2022-10-08T07:43:56.751Z,12.95
2022-10-08T07:44:56.746Z,12.98
2022-10-08T07:45:56.770Z,13.06
2022-10-08T07:46:56.710Z,13.09
2022-10-08T07:47:56.726Z,13.09
2022-10-08T07:48:56.709Z,13.03
2022-10-08T07:49:57.162Z,12.98
2022-10-08T07:50:56.677Z,12.98
2022-10-08T07:51:56.663Z,12.95
2022-10-08T07:52:56.645Z,12.96
2022-10-08T07:54:00.257Z,13.01
2022-10-08T07:54:56.627Z,13.06
2022-10-08T07:55:56.609Z,13.04
2022-10-08T07:56:56.606Z,13.09
2022-10-08T07:57:56.580Z,13.13
2022-10-08T07:58:56.569Z,13.12
2022-10-08T07:59:56.951Z,13.10
2022-10-08T08:00:56.599Z,13.10
2022-10-08T08:01:56.557Z,13.10
2022-10-08T08:02:56.528Z,13.10
2022-10-08T08:03:56.519Z,13.16
2022-10-08T08:04:56.515Z,13.24
2022-10-08T08:05:56.520Z,13.28
2022-10-08T08:06:56.493Z,13.35
2022-10-08T08:07:56.493Z,13.41
2022-10-08T08:08:56.481Z,13.47
2022-10-08T08:09:56.453Z,13.55
2022-10-08T08:10:56.459Z,13.48
2022-10-08T08:11:56.439Z,13.46
2022-10-08T08:12:56.413Z,13.44
2022-10-08T08:13:56.416Z,13.46
2022-10-08T08:14:56.392Z,13.41
2022-10-08T08:15:56.378Z,13.48
2022-10-08T08:16:56.437Z,13.50
2022-10-08T08:17:56.365Z,13.48
2022-10-08T08:18:56.353Z,13.48
2022-10-08T08:19:56.342Z,13.44
2022-10-08T08:20:56.335Z,13.46
2022-10-08T08:21:56.317Z,13.44
2022-10-08T08:22:56.356Z,13.46
2022-10-08T08:23:56.293Z,13.50
2022-10-08T08:24:56.279Z,13.44
2022-10-08T08:25:56.273Z,13.44
2022-10-08T08:26:57.821Z,13.43
2022-10-08T08:27:56.242Z,13.47
2022-10-08T08:28:56.246Z,13.47
2022-10-08T08:29:56.239Z,13.53
2022-10-08T08:30:56.197Z,13.50
2022-10-08T08:31:56.259Z,13.54
2022-10-08T08:32:56.193Z,13.53
2022-10-08T08:33:56.186Z,13.65
2022-10-08T08:34:56.203Z,13.69
2022-10-08T08:35:56.155Z,13.76
2022-10-08T08:36:56.148Z,13.83
2022-10-08T08:37:56.125Z,13.88
2022-10-08T08:38:56.114Z,13.81
2022-10-08T08:39:56.090Z,13.76
2022-10-08T08:40:56.113Z,13.66
2022-10-08T08:41:56.107Z,13.65
2022-10-08T08:42:56.079Z,13.57
2022-10-08T08:43:56.053Z,13.54
2022-10-08T08:44:56.052Z,13.61
2022-10-08T08:45:56.085Z,13.66
2022-10-08T08:46:56.022Z,13.72
2022-10-08T08:47:56.013Z,13.75
2022-10-08T08:48:56.022Z,13.81
2022-10-08T08:49:55.981Z,13.80
2022-10-08T08:50:55.983Z,13.73
2022-10-08T08:51:55.985Z,13.73
2022-10-08T08:52:55.960Z,13.75
2022-10-08T08:53:55.939Z,13.79
2022-10-08T08:54:55.937Z,13.88
2022-10-08T08:55:55.917Z,13.90
2022-10-08T08:56:55.927Z,14.02
2022-10-08T08:57:55.895Z,14.13
2022-10-08T08:58:55.913Z,14.09
2022-10-08T08:59:55.926Z,14.20
2022-10-08T09:00:55.989Z,14.24
2022-10-08T09:01:55.850Z,14.17
2022-10-08T09:02:55.867Z,14.30
2022-10-08T09:03:55.818Z,14.35
2022-10-08T09:04:55.810Z,14.29
2022-10-08T09:05:55.846Z,14.44
2022-10-08T09:06:55.800Z,14.49
2022-10-08T09:07:55.786Z,14.52
2022-10-08T09:08:55.790Z,14.54
2022-10-08T09:09:55.849Z,14.57
2022-10-08T09:10:55.761Z,14.63
2022-10-08T09:11:55.733Z,14.56
2022-10-08T09:12:55.731Z,14.56
2022-10-08T09:13:55.749Z,14.63
2022-10-08T09:14:55.709Z,14.63
2022-10-08T09:15:55.682Z,14.66
2022-10-08T09:16:55.744Z,14.69
2022-10-08T09:17:55.668Z,14.71
2022-10-08T09:18:55.653Z,14.80
2022-10-08T09:19:55.692Z,14.87
2022-10-08T09:20:55.658Z,14.83
2022-10-08T09:21:55.628Z,14.94
2022-10-08T09:22:55.613Z,14.97
2022-10-08T09:23:56.319Z,14.90
2022-10-08T09:24:55.594Z,14.87
2022-10-08T09:25:55.605Z,14.86
2022-10-08T09:26:55.575Z,14.79
2022-10-08T09:27:55.558Z,14.79
2022-10-08T09:28:55.550Z,14.83
2022-10-08T09:29:55.650Z,14.86
2022-10-08T09:30:58.821Z,14.78
2022-10-08T09:31:55.523Z,14.79
2022-10-08T09:32:55.498Z,14.80
2022-10-08T09:33:55.504Z,14.82
2022-10-08T09:34:55.486Z,14.82
2022-10-08T09:35:55.494Z,14.78
2022-10-08T09:36:55.455Z,14.72
2022-10-08T09:37:55.448Z,14.75
2022-10-08T09:38:55.422Z,14.71
2022-10-08T09:39:55.452Z,14.78
2022-10-08T09:40:55.438Z,14.79
2022-10-08T09:41:55.455Z,14.86
2022-10-08T09:42:55.393Z,14.95
2022-10-08T09:43:55.385Z,15.01
2022-10-08T09:44:55.387Z,15.12
2022-10-08T09:45:55.405Z,15.12
2022-10-08T09:46:55.362Z,15.11
2022-10-08T09:47:55.344Z,15.04
2022-10-08T09:48:55.334Z,14.91
2022-10-08T09:49:55.310Z,14.75
2022-10-08T09:50:55.311Z,14.79
2022-10-08T09:51:55.315Z,14.91
2022-10-08T09:52:55.287Z,15.07
2022-10-08T09:53:55.263Z,15.22
2022-10-08T09:54:55.266Z,15.40
2022-10-08T09:55:55.253Z,15.60
2022-10-08T09:56:55.247Z,15.81
2022-10-08T09:57:55.244Z,16.03
2022-10-08T09:58:55.207Z,16.22
2022-10-08T09:59:55.237Z,16.14
2022-10-08T10:00:55.202Z,15.96
2022-10-08T10:01:55.220Z,15.84
2022-10-08T10:02:55.175Z,15.81
2022-10-08T10:03:55.232Z,15.92
2022-10-08T10:04:55.149Z,15.91
2022-10-08T10:05:55.156Z,15.76
2022-10-08T10:06:55.161Z,15.70
2022-10-08T10:07:55.129Z,15.60
2022-10-08T10:08:55.099Z,15.66
2022-10-08T10:09:55.084Z,15.71
2022-10-08T10:10:55.077Z,15.88
2022-10-08T10:11:55.098Z,16.01
2022-10-08T10:12:55.080Z,16.11
2022-10-08T10:13:55.051Z,16.17
2022-10-08T10:14:55.122Z,16.27
2022-10-08T10:15:55.022Z,16.34
2022-10-08T10:16:55.144Z,16.36
2022-10-08T10:17:55.037Z,16.48
2022-10-08T10:18:54.996Z,16.54
2022-10-08T10:19:54.980Z,16.47
2022-10-08T10:20:54.979Z,16.36
2022-10-08T10:21:54.956Z,16.40
2022-10-08T10:22:55.043Z,16.51
2022-10-08T10:23:54.934Z,16.60
2022-10-08T10:24:54.938Z,16.62
2022-10-08T10:25:57.645Z,16.70
2022-10-08T10:26:54.895Z,16.82
2022-10-08T10:27:54.911Z,16.91
2022-10-08T10:28:54.878Z,16.92
2022-10-08T10:29:54.869Z,17.02
2022-10-08T10:30:54.905Z,16.99
2022-10-08T10:31:54.849Z,17.10
2022-10-08T10:32:54.918Z,17.28
2022-10-08T10:33:54.821Z,17.38
2022-10-08T10:34:54.845Z,17.45
2022-10-08T10:35:54.813Z,17.55
2022-10-08T10:36:54.829Z,17.54
2022-10-08T10:37:54.792Z,17.68
2022-10-08T10:38:54.795Z,17.73
2022-10-08T10:39:54.743Z,17.77
2022-10-08T10:40:54.773Z,17.74
2022-10-08T10:41:54.858Z,17.73
2022-10-08T10:42:54.708Z,17.58
2022-10-08T10:43:54.739Z,17.07
2022-10-08T10:44:54.706Z,16.84
2022-10-08T10:45:54.780Z,16.60
2022-10-08T10:46:54.670Z,16.55
2022-10-08T10:47:54.695Z,16.47
2022-10-08T10:48:54.653Z,16.33
2022-10-08T10:49:54.677Z,16.29
2022-10-08T10:50:54.627Z,16.25
2022-10-08T10:51:54.612Z,16.13
2022-10-08T10:52:54.588Z,16.04
2022-10-08T10:53:54.582Z,15.80
2022-10-08T10:54:54.575Z,15.62
2022-10-08T10:55:55.004Z,15.35
2022-10-08T10:56:54.555Z,15.15
2022-10-08T10:57:54.557Z,14.79
2022-10-08T10:58:54.536Z,14.56
2022-10-08T10:59:54.511Z,14.46
2022-10-08T11:00:54.527Z,14.17
2022-10-08T11:01:54.554Z,14.08
2022-10-08T11:02:54.517Z,13.99
2022-10-08T11:03:54.469Z,13.96
2022-10-08T11:04:57.115Z,13.87
2022-10-08T11:05:55.064Z,13.75
2022-10-08T11:06:54.832Z,13.72
2022-10-08T11:07:54.432Z,13.72
2022-10-08T11:08:57.576Z,13.75
2022-10-08T11:09:54.426Z,13.79
2022-10-08T11:10:54.425Z,13.68
2022-10-08T11:11:54.419Z,13.71
2022-10-08T11:12:54.416Z,13.69
2022-10-08T11:13:54.388Z,13.66
2022-10-08T11:14:54.347Z,13.69
2022-10-08T11:15:54.504Z,13.72
2022-10-08T11:16:54.318Z,13.73
2022-10-08T11:17:54.351Z,13.84
2022-10-08T11:18:54.319Z,13.84
2022-10-08T11:19:54.303Z,14.04
2022-10-08T11:20:54.280Z,14.29
2022-10-08T11:21:54.286Z,14.49
2022-10-08T11:22:54.268Z,14.66
2022-10-08T11:23:54.301Z,14.75
2022-10-08T11:24:54.240Z,14.83
2022-10-08T11:26:16.489Z,15.03
2022-10-08T11:26:54.226Z,15.12
2022-10-08T11:27:54.225Z,15.25
2022-10-08T11:28:54.201Z,15.40
2022-10-08T11:29:54.209Z,15.56
2022-10-08T11:30:54.210Z,15.80
2022-10-08T11:31:54.172Z,15.95
2022-10-08T11:32:54.153Z,15.95
2022-10-08T11:33:54.145Z,16.08
2022-10-08T11:34:54.145Z,16.06
2022-10-08T11:35:54.133Z,16.10
2022-10-08T11:36:54.107Z,16.17
2022-10-08T11:37:54.122Z,16.16
2022-10-08T11:38:54.086Z,16.33
2022-10-08T11:39:54.065Z,16.52
2022-10-08T11:40:54.082Z,16.72
2022-10-08T11:41:54.034Z,16.69
2022-10-08T11:42:54.536Z,16.69
2022-10-08T11:43:54.012Z,16.70
2022-10-08T11:44:54.054Z,16.73
2022-10-08T11:45:54.069Z,16.57
2022-10-08T11:46:53.994Z,16.45
2022-10-08T11:47:53.966Z,16.32
2022-10-08T11:48:53.986Z,16.33
2022-10-08T11:49:53.967Z,16.48
2022-10-08T11:50:53.986Z,16.66
2022-10-08T11:51:53.930Z,16.75
2022-10-08T11:52:53.950Z,16.85
2022-10-08T11:53:53.894Z,16.88
2022-10-08T11:54:55.882Z,17.03
2022-10-08T11:55:53.920Z,17.07
2022-10-08T11:56:53.882Z,17.09
2022-10-08T11:58:07.714Z,17.12
2022-10-08T11:58:53.860Z,17.00
2022-10-08T11:59:53.840Z,17.00
2022-10-08T12:00:53.850Z,17.07
2022-10-08T12:01:53.807Z,17.17
2022-10-08T12:02:53.951Z,17.14
2022-10-08T12:03:53.821Z,17.09
2022-10-08T12:04:53.788Z,17.09
2022-10-08T12:05:53.779Z,17.14
2022-10-08T12:06:53.761Z,16.98
2022-10-08T12:07:53.792Z,16.77
2022-10-08T12:08:53.823Z,16.70
2022-10-08T12:09:53.729Z,16.37
2022-10-08T12:10:53.734Z,16.26
2022-10-08T12:11:53.706Z,16.13
2022-10-08T12:12:53.701Z,16.16
2022-10-08T12:13:53.700Z,16.14
2022-10-08T12:14:53.688Z,16.16
2022-10-08T12:15:53.786Z,16.10
2022-10-08T12:16:53.647Z,16.06
2022-10-08T12:17:53.631Z,16.04
2022-10-08T12:18:53.641Z,16.03
2022-10-08T12:19:53.615Z,16.11
2022-10-08T12:20:53.621Z,16.17
2022-10-08T12:21:53.590Z,16.27
2022-10-08T12:22:53.586Z,16.34
2022-10-08T12:23:53.569Z,16.36
2022-10-08T12:24:53.555Z,16.50
2022-10-08T12:25:53.554Z,16.66
2022-10-08T12:26:53.531Z,16.87
2022-10-08T12:27:53.520Z,17.15
2022-10-08T12:28:53.512Z,17.32
2022-10-08T12:29:53.491Z,17.40
2022-10-08T12:30:53.533Z,17.55
2022-10-08T12:31:53.536Z,17.76
2022-10-08T12:32:53.476Z,17.51
2022-10-08T12:33:53.466Z,17.46
2022-10-08T12:34:53.447Z,17.49
2022-10-08T12:35:53.468Z,17.46
2022-10-08T12:36:53.414Z,17.38
2022-10-08T12:37:53.424Z,17.28
2022-10-08T12:38:53.390Z,17.39
2022-10-08T12:39:53.419Z,17.46
2022-10-08T12:40:53.393Z,17.51
2022-10-08T12:41:53.381Z,17.33
2022-10-08T12:42:53.378Z,17.38
2022-10-08T12:43:53.338Z,17.35
2022-10-08T12:44:53.330Z,17.33
2022-10-08T12:45:53.331Z,17.46
2022-10-08T12:46:53.345Z,17.55
2022-10-08T12:47:53.306Z,17.77
2022-10-08T12:48:53.299Z,17.83
2022-10-08T12:49:53.283Z,17.92
2022-10-08T12:50:53.287Z,18.01
2022-10-08T12:51:53.269Z,18.10